sensor_id;sensor_type;location;lat;lon;timestamp;P1;durP1;ratioP1;P2;durP2;ratioP2
22955;SDS011;40888;48.148;11.526;2023-03-03T00:02:19;49.40;;;34.03;;
22955;SDS011;40888;48.148;11.526;2023-03-03T00:04:45;47.13;;;32.27;;
22955;SDS011;40888;48.148;11.526;2023-03-03T00:07:11;48.67;;;34.37;;
22955;SDS011;40888;48.148;11.526;2023-03-03T00:09:39;47.27;;;33.17;;
22955;SDS011;40888;48.148;11.526;2023-03-03T00:12:25;46.23;;;33.40;;
22955;SDS011;40888;48.148;11.526;2023-03-03T00:14:51;46.70;;;33.20;;
22955;SDS011;40888;48.148;11.526;2023-03-03T00:17:25;45.07;;;32.07;;
22955;SDS011;40888;48.148;11.526;2023-03-03T00:19:51;45.30;;;32.53;;
22955;SDS011;40888;48.148;11.526;2023-03-03T00:25:29;49.37;;;35.03;;
22955;SDS011;40888;48.148;11.526;2023-03-03T00:28:56;46.40;;;32.13;;
22955;SDS011;40888;48.148;11.526;2023-03-03T00:30:52;47.90;;;32.97;;
22955;SDS011;40888;48.148;11.526;2023-03-03T00:33:31;48.73;;;32.63;;
22955;SDS011;40888;48.148;11.526;2023-03-03T00:36:44;45.93;;;32.87;;
22955;SDS011;40888;48.148;11.526;2023-03-03T00:38:46;45.03;;;32.07;;
22955;SDS011;40888;48.148;11.526;2023-03-03T00:41:18;46.90;;;32.93;;
22955;SDS011;40888;48.148;11.526;2023-03-03T00:43:46;47.90;;;34.13;;
22955;SDS011;40888;48.148;11.526;2023-03-03T00:46:14;51.97;;;34.70;;
22955;SDS011;40888;48.148;11.526;2023-03-03T00:48:43;50.53;;;34.43;;
22955;SDS011;40888;48.148;11.526;2023-03-03T00:51:31;45.63;;;33.03;;
22955;SDS011;40888;48.148;11.526;2023-03-03T00:53:57;49.77;;;34.20;;
22955;SDS011;40888;48.148;11.526;2023-03-03T00:56:23;49.10;;;33.97;;
22955;SDS011;40888;48.148;11.526;2023-03-03T00:58:50;46.87;;;33.60;;
22955;SDS011;40888;48.148;11.526;2023-03-03T01:01:16;49.97;;;34.00;;
22955;SDS011;40888;48.148;11.526;2023-03-03T01:03:42;47.07;;;33.57;;
22955;SDS011;40888;48.148;11.526;2023-03-03T01:06:09;47.73;;;32.77;;
22955;SDS011;40888;48.148;11.526;2023-03-03T01:08:35;44.33;;;32.37;;
22955;SDS011;40888;48.148;11.526;2023-03-03T01:11:06;46.03;;;33.03;;
22955;SDS011;40888;48.148;11.526;2023-03-03T01:13:33;49.73;;;33.73;;
22955;SDS011;40888;48.148;11.526;2023-03-03T01:16:00;43.27;;;32.13;;
22955;SDS011;40888;48.148;11.526;2023-03-03T01:18:27;47.73;;;33.10;;
22955;SDS011;40888;48.148;11.526;2023-03-03T01:20:53;49.90;;;34.87;;
22955;SDS011;40888;48.148;11.526;2023-03-03T01:23:19;50.13;;;35.63;;
22955;SDS011;40888;48.148;11.526;2023-03-03T01:25:45;48.33;;;32.73;;
22955;SDS011;40888;48.148;11.526;2023-03-03T01:28:12;45.87;;;32.63;;
22955;SDS011;40888;48.148;11.526;2023-03-03T01:30:38;47.13;;;32.67;;
22955;SDS011;40888;48.148;11.526;2023-03-03T01:33:04;49.03;;;34.23;;
22955;SDS011;40888;48.148;11.526;2023-03-03T01:35:30;50.93;;;35.30;;
22955;SDS011;40888;48.148;11.526;2023-03-03T01:37:56;46.40;;;34.03;;
22955;SDS011;40888;48.148;11.526;2023-03-03T01:40:24;50.80;;;33.63;;
22955;SDS011;40888;48.148;11.526;2023-03-03T01:42:51;45.90;;;32.57;;
22955;SDS011;40888;48.148;11.526;2023-03-03T01:47:47;46.23;;;34.47;;
22955;SDS011;40888;48.148;11.526;2023-03-03T01:50:16;49.73;;;34.67;;
22955;SDS011;40888;48.148;11.526;2023-03-03T01:52:45;53.80;;;35.43;;
22955;SDS011;40888;48.148;11.526;2023-03-03T01:55:13;48.77;;;34.30;;
22955;SDS011;40888;48.148;11.526;2023-03-03T01:57:42;48.87;;;34.47;;
22955;SDS011;40888;48.148;11.526;2023-03-03T02:00:09;48.87;;;35.47;;
22955;SDS011;40888;48.148;11.526;2023-03-03T02:02:35;48.87;;;34.93;;
22955;SDS011;40888;48.148;11.526;2023-03-03T02:05:02;51.50;;;36.70;;
22955;SDS011;40888;48.148;11.526;2023-03-03T02:07:28;50.63;;;35.97;;
22955;SDS011;40888;48.148;11.526;2023-03-03T02:10:03;55.97;;;37.83;;
22955;SDS011;40888;48.148;11.526;2023-03-03T02:13:03;49.90;;;35.90;;
22955;SDS011;40888;48.148;11.526;2023-03-03T02:17:49;50.73;;;35.03;;
22955;SDS011;40888;48.148;11.526;2023-03-03T02:22:56;50.80;;;36.10;;
22955;SDS011;40888;48.148;11.526;2023-03-03T02:25:30;53.87;;;36.50;;
22955;SDS011;40888;48.148;11.526;2023-03-03T02:27:57;51.13;;;35.23;;
22955;SDS011;40888;48.148;11.526;2023-03-03T02:30:24;52.07;;;37.73;;
22955;SDS011;40888;48.148;11.526;2023-03-03T02:32:50;54.87;;;36.43;;
22955;SDS011;40888;48.148;11.526;2023-03-03T02:35:26;50.37;;;36.30;;
22955;SDS011;40888;48.148;11.526;2023-03-03T02:37:54;54.47;;;37.07;;
22955;SDS011;40888;48.148;11.526;2023-03-03T02:40:21;51.73;;;36.77;;
22955;SDS011;40888;48.148;11.526;2023-03-03T02:42:49;49.37;;;35.23;;
22955;SDS011;40888;48.148;11.526;2023-03-03T02:45:15;50.40;;;36.63;;
22955;SDS011;40888;48.148;11.526;2023-03-03T02:47:47;50.83;;;36.23;;
22955;SDS011;40888;48.148;11.526;2023-03-03T02:50:13;50.20;;;35.43;;
22955;SDS011;40888;48.148;11.526;2023-03-03T02:52:39;46.67;;;34.17;;
22955;SDS011;40888;48.148;11.526;2023-03-03T02:55:06;45.47;;;32.93;;
22955;SDS011;40888;48.148;11.526;2023-03-03T02:57:32;48.33;;;34.50;;
22955;SDS011;40888;48.148;11.526;2023-03-03T02:59:58;45.83;;;33.40;;
22955;SDS011;40888;48.148;11.526;2023-03-03T03:02:24;48.07;;;35.33;;
22955;SDS011;40888;48.148;11.526;2023-03-03T03:04:51;47.80;;;33.27;;
22955;SDS011;40888;48.148;11.526;2023-03-03T03:07:17;47.47;;;34.67;;
22955;SDS011;40888;48.148;11.526;2023-03-03T03:09:44;45.73;;;34.43;;
22955;SDS011;40888;48.148;11.526;2023-03-03T03:12:10;45.83;;;33.57;;
22955;SDS011;40888;48.148;11.526;2023-03-03T03:14:36;47.77;;;33.80;;
22955;SDS011;40888;48.148;11.526;2023-03-03T03:17:02;48.40;;;35.30;;
22955;SDS011;40888;48.148;11.526;2023-03-03T03:19:29;44.27;;;32.50;;
22955;SDS011;40888;48.148;11.526;2023-03-03T03:21:55;49.23;;;34.93;;
22955;SDS011;40888;48.148;11.526;2023-03-03T03:24:21;50.10;;;34.20;;
22955;SDS011;40888;48.148;11.526;2023-03-03T03:26:47;48.77;;;35.17;;
22955;SDS011;40888;48.148;11.526;2023-03-03T03:29:13;48.50;;;35.23;;
22955;SDS011;40888;48.148;11.526;2023-03-03T03:31:39;48.57;;;34.03;;
22955;SDS011;40888;48.148;11.526;2023-03-03T03:34:07;49.20;;;35.67;;
22955;SDS011;40888;48.148;11.526;2023-03-03T03:36:34;55.57;;;35.47;;
22955;SDS011;40888;48.148;11.526;2023-03-03T03:39:02;51.00;;;36.07;;
22955;SDS011;40888;48.148;11.526;2023-03-03T03:41:30;45.03;;;33.07;;
22955;SDS011;40888;48.148;11.526;2023-03-03T03:43:56;47.87;;;35.03;;
22955;SDS011;40888;48.148;11.526;2023-03-03T03:46:22;46.07;;;33.93;;
22955;SDS011;40888;48.148;11.526;2023-03-03T03:48:48;47.77;;;35.13;;
22955;SDS011;40888;48.148;11.526;2023-03-03T03:51:14;47.73;;;34.33;;
22955;SDS011;40888;48.148;11.526;2023-03-03T03:53:41;50.87;;;35.40;;
22955;SDS011;40888;48.148;11.526;2023-03-03T03:56:07;44.67;;;32.83;;
22955;SDS011;40888;48.148;11.526;2023-03-03T03:58:33;47.87;;;34.53;;
22955;SDS011;40888;48.148;11.526;2023-03-03T04:01:03;48.27;;;34.27;;
22955;SDS011;40888;48.148;11.526;2023-03-03T04:03:29;52.63;;;36.47;;
22955;SDS011;40888;48.148;11.526;2023-03-03T04:05:55;51.10;;;35.10;;
22955;SDS011;40888;48.148;11.526;2023-03-03T04:08:21;49.20;;;35.20;;
22955;SDS011;40888;48.148;11.526;2023-03-03T04:10:47;49.47;;;35.33;;
22955;SDS011;40888;48.148;11.526;2023-03-03T04:13:14;52.27;;;36.53;;
22955;SDS011;40888;48.148;11.526;2023-03-03T04:15:40;51.77;;;36.03;;
22955;SDS011;40888;48.148;11.526;2023-03-03T04:18:06;50.70;;;35.50;;
22955;SDS011;40888;48.148;11.526;2023-03-03T04:20:33;49.03;;;36.00;;
22955;SDS011;40888;48.148;11.526;2023-03-03T04:22:59;52.03;;;36.50;;
22955;SDS011;40888;48.148;11.526;2023-03-03T04:25:25;48.03;;;36.30;;
22955;SDS011;40888;48.148;11.526;2023-03-03T04:27:51;50.80;;;36.07;;
22955;SDS011;40888;48.148;11.526;2023-03-03T04:30:18;48.80;;;36.03;;
22955;SDS011;40888;48.148;11.526;2023-03-03T04:32:44;50.50;;;36.37;;
22955;SDS011;40888;48.148;11.526;2023-03-03T04:35:10;51.23;;;35.00;;
22955;SDS011;40888;48.148;11.526;2023-03-03T04:37:37;48.47;;;34.93;;
22955;SDS011;40888;48.148;11.526;2023-03-03T04:40:04;50.20;;;37.13;;
22955;SDS011;40888;48.148;11.526;2023-03-03T04:42:30;49.47;;;36.57;;
22955;SDS011;40888;48.148;11.526;2023-03-03T04:44:56;49.40;;;35.40;;
22955;SDS011;40888;48.148;11.526;2023-03-03T04:47:22;51.73;;;36.67;;
22955;SDS011;40888;48.148;11.526;2023-03-03T04:49:48;53.07;;;37.13;;
22955;SDS011;40888;48.148;11.526;2023-03-03T04:52:15;49.10;;;36.40;;
22955;SDS011;40888;48.148;11.526;2023-03-03T04:54:41;52.97;;;36.73;;
22955;SDS011;40888;48.148;11.526;2023-03-03T04:57:07;49.10;;;35.00;;
22955;SDS011;40888;48.148;11.526;2023-03-03T04:59:33;49.20;;;35.43;;
22955;SDS011;40888;48.148;11.526;2023-03-03T05:02:00;51.53;;;36.73;;
22955;SDS011;40888;48.148;11.526;2023-03-03T05:04:26;49.53;;;36.10;;
22955;SDS011;40888;48.148;11.526;2023-03-03T05:06:52;45.97;;;34.23;;
22955;SDS011;40888;48.148;11.526;2023-03-03T05:09:18;53.57;;;37.63;;
22955;SDS011;40888;48.148;11.526;2023-03-03T05:11:44;52.40;;;37.20;;
22955;SDS011;40888;48.148;11.526;2023-03-03T05:14:10;47.90;;;36.47;;
22955;SDS011;40888;48.148;11.526;2023-03-03T05:16:36;56.67;;;38.20;;
22955;SDS011;40888;48.148;11.526;2023-03-03T05:19:02;53.20;;;37.83;;
22955;SDS011;40888;48.148;11.526;2023-03-03T05:21:29;54.70;;;37.37;;
22955;SDS011;40888;48.148;11.526;2023-03-03T05:23:55;54.93;;;38.40;;
22955;SDS011;40888;48.148;11.526;2023-03-03T05:26:21;50.70;;;36.70;;
22955;SDS011;40888;48.148;11.526;2023-03-03T05:28:47;51.43;;;38.93;;
22955;SDS011;40888;48.148;11.526;2023-03-03T05:31:13;54.40;;;38.27;;
22955;SDS011;40888;48.148;11.526;2023-03-03T05:33:39;55.27;;;38.90;;
22955;SDS011;40888;48.148;11.526;2023-03-03T05:36:05;51.67;;;37.70;;
22955;SDS011;40888;48.148;11.526;2023-03-03T05:38:32;54.30;;;38.23;;
22955;SDS011;40888;48.148;11.526;2023-03-03T05:40:58;53.33;;;36.63;;
22955;SDS011;40888;48.148;11.526;2023-03-03T05:43:24;55.63;;;38.13;;
22955;SDS011;40888;48.148;11.526;2023-03-03T05:45:54;54.87;;;36.70;;
22955;SDS011;40888;48.148;11.526;2023-03-03T05:48:20;56.03;;;37.70;;
22955;SDS011;40888;48.148;11.526;2023-03-03T05:50:46;53.60;;;38.53;;
22955;SDS011;40888;48.148;11.526;2023-03-03T05:53:13;55.83;;;39.37;;
22955;SDS011;40888;48.148;11.526;2023-03-03T05:55:39;53.90;;;39.07;;
22955;SDS011;40888;48.148;11.526;2023-03-03T05:58:05;57.17;;;37.23;;
22955;SDS011;40888;48.148;11.526;2023-03-03T06:00:31;56.63;;;38.63;;
22955;SDS011;40888;48.148;11.526;2023-03-03T06:02:57;53.87;;;39.13;;
22955;SDS011;40888;48.148;11.526;2023-03-03T06:05:23;55.43;;;38.37;;
22955;SDS011;40888;48.148;11.526;2023-03-03T06:07:50;54.70;;;38.80;;
22955;SDS011;40888;48.148;11.526;2023-03-03T06:10:16;56.63;;;38.27;;
22955;SDS011;40888;48.148;11.526;2023-03-03T06:12:42;60.00;;;39.80;;
22955;SDS011;40888;48.148;11.526;2023-03-03T06:15:08;54.27;;;39.30;;
22955;SDS011;40888;48.148;11.526;2023-03-03T06:17:34;58.63;;;41.40;;
22955;SDS011;40888;48.148;11.526;2023-03-03T06:20:01;55.77;;;39.63;;
22955;SDS011;40888;48.148;11.526;2023-03-03T06:22:28;55.00;;;40.17;;
22955;SDS011;40888;48.148;11.526;2023-03-03T06:24:55;58.40;;;40.83;;
22955;SDS011;40888;48.148;11.526;2023-03-03T06:27:21;61.37;;;41.60;;
22955;SDS011;40888;48.148;11.526;2023-03-03T06:29:47;58.33;;;41.00;;
22955;SDS011;40888;48.148;11.526;2023-03-03T06:32:13;58.83;;;40.53;;
22955;SDS011;40888;48.148;11.526;2023-03-03T06:34:39;61.07;;;42.63;;
22955;SDS011;40888;48.148;11.526;2023-03-03T06:37:05;61.40;;;41.50;;
22955;SDS011;40888;48.148;11.526;2023-03-03T06:39:32;60.30;;;41.40;;
22955;SDS011;40888;48.148;11.526;2023-03-03T06:41:58;61.87;;;40.93;;
22955;SDS011;40888;48.148;11.526;2023-03-03T06:44:24;58.93;;;43.57;;
22955;SDS011;40888;48.148;11.526;2023-03-03T06:46:50;63.87;;;42.53;;
22955;SDS011;40888;48.148;11.526;2023-03-03T06:49:17;63.23;;;42.43;;
22955;SDS011;40888;48.148;11.526;2023-03-03T06:51:43;61.03;;;42.30;;
22955;SDS011;40888;48.148;11.526;2023-03-03T06:54:11;60.87;;;43.63;;
22955;SDS011;40888;48.148;11.526;2023-03-03T06:56:38;57.73;;;41.87;;
22955;SDS011;40888;48.148;11.526;2023-03-03T06:59:05;64.67;;;43.40;;
22955;SDS011;40888;48.148;11.526;2023-03-03T07:01:35;69.73;;;44.93;;
22955;SDS011;40888;48.148;11.526;2023-03-03T07:06:43;64.53;;;44.43;;
22955;SDS011;40888;48.148;11.526;2023-03-03T07:09:26;72.50;;;45.67;;
22955;SDS011;40888;48.148;11.526;2023-03-03T07:11:55;68.20;;;45.53;;
22955;SDS011;40888;48.148;11.526;2023-03-03T07:14:22;66.00;;;44.47;;
22955;SDS011;40888;48.148;11.526;2023-03-03T07:17:08;65.13;;;46.00;;
22955;SDS011;40888;48.148;11.526;2023-03-03T07:19:37;63.63;;;42.30;;
22955;SDS011;40888;48.148;11.526;2023-03-03T07:22:13;61.77;;;42.83;;
22955;SDS011;40888;48.148;11.526;2023-03-03T07:24:40;65.67;;;44.43;;
22955;SDS011;40888;48.148;11.526;2023-03-03T07:29:45;67.17;;;44.53;;
22955;SDS011;40888;48.148;11.526;2023-03-03T07:32:23;66.47;;;44.03;;
22955;SDS011;40888;48.148;11.526;2023-03-03T07:34:50;66.10;;;44.10;;
22955;SDS011;40888;48.148;11.526;2023-03-03T07:37:21;61.57;;;43.73;;
22955;SDS011;40888;48.148;11.526;2023-03-03T07:39:51;67.03;;;44.33;;
22955;SDS011;40888;48.148;11.526;2023-03-03T07:42:21;63.47;;;44.07;;
22955;SDS011;40888;48.148;11.526;2023-03-03T07:44:51;71.07;;;44.63;;
22955;SDS011;40888;48.148;11.526;2023-03-03T07:47:20;65.33;;;45.07;;
22955;SDS011;40888;48.148;11.526;2023-03-03T07:49:47;61.93;;;42.53;;
22955;SDS011;40888;48.148;11.526;2023-03-03T07:54:59;63.17;;;44.40;;
22955;SDS011;40888;48.148;11.526;2023-03-03T07:57:28;65.13;;;44.57;;
22955;SDS011;40888;48.148;11.526;2023-03-03T08:02:57;66.27;;;45.33;;
22955;SDS011;40888;48.148;11.526;2023-03-03T08:07:57;67.00;;;44.33;;
22955;SDS011;40888;48.148;11.526;2023-03-03T08:10:30;58.97;;;42.60;;
22955;SDS011;40888;48.148;11.526;2023-03-03T08:12:59;69.10;;;46.53;;
22955;SDS011;40888;48.148;11.526;2023-03-03T08:15:29;63.37;;;43.37;;
22955;SDS011;40888;48.148;11.526;2023-03-03T08:17:56;63.50;;;43.33;;
22955;SDS011;40888;48.148;11.526;2023-03-03T08:20:37;64.67;;;44.53;;
22955;SDS011;40888;48.148;11.526;2023-03-03T08:23:03;60.33;;;43.57;;
22955;SDS011;40888;48.148;11.526;2023-03-03T08:25:29;61.83;;;43.27;;
22955;SDS011;40888;48.148;11.526;2023-03-03T08:27:56;59.43;;;41.83;;
22955;SDS011;40888;48.148;11.526;2023-03-03T08:30:22;57.80;;;42.37;;
22955;SDS011;40888;48.148;11.526;2023-03-03T08:32:48;60.03;;;39.83;;
22955;SDS011;40888;48.148;11.526;2023-03-03T08:35:14;63.57;;;43.17;;
22955;SDS011;40888;48.148;11.526;2023-03-03T08:37:40;62.03;;;41.33;;
22955;SDS011;40888;48.148;11.526;2023-03-03T08:40:06;61.43;;;41.07;;
22955;SDS011;40888;48.148;11.526;2023-03-03T08:42:33;57.13;;;40.53;;
22955;SDS011;40888;48.148;11.526;2023-03-03T08:44:59;62.93;;;40.80;;
22955;SDS011;40888;48.148;11.526;2023-03-03T08:47:25;67.53;;;41.47;;
22955;SDS011;40888;48.148;11.526;2023-03-03T08:49:51;57.67;;;38.83;;
22955;SDS011;40888;48.148;11.526;2023-03-03T08:52:18;57.37;;;40.60;;
22955;SDS011;40888;48.148;11.526;2023-03-03T08:54:45;60.90;;;42.27;;
22955;SDS011;40888;48.148;11.526;2023-03-03T08:57:11;54.27;;;38.07;;
22955;SDS011;40888;48.148;11.526;2023-03-03T08:59:37;59.90;;;43.13;;
22955;SDS011;40888;48.148;11.526;2023-03-03T09:02:04;57.80;;;41.67;;
22955;SDS011;40888;48.148;11.526;2023-03-03T09:04:30;57.40;;;38.20;;
22955;SDS011;40888;48.148;11.526;2023-03-03T09:06:56;56.13;;;40.63;;
22955;SDS011;40888;48.148;11.526;2023-03-03T09:09:23;57.17;;;40.87;;
22955;SDS011;40888;48.148;11.526;2023-03-03T09:11:49;57.00;;;40.57;;
22955;SDS011;40888;48.148;11.526;2023-03-03T09:14:18;59.60;;;41.33;;
22955;SDS011;40888;48.148;11.526;2023-03-03T09:16:51;54.93;;;36.63;;
22955;SDS011;40888;48.148;11.526;2023-03-03T09:21:46;55.93;;;39.70;;
22955;SDS011;40888;48.148;11.526;2023-03-03T09:24:46;56.97;;;38.43;;
22955;SDS011;40888;48.148;11.526;2023-03-03T09:27:11;56.07;;;38.63;;
22955;SDS011;40888;48.148;11.526;2023-03-03T09:29:43;59.37;;;41.10;;
22955;SDS011;40888;48.148;11.526;2023-03-03T09:34:44;54.73;;;36.73;;
22955;SDS011;40888;48.148;11.526;2023-03-03T09:39:38;54.23;;;37.00;;
22955;SDS011;40888;48.148;11.526;2023-03-03T09:44:40;56.83;;;39.17;;
22955;SDS011;40888;48.148;11.526;2023-03-03T09:49:46;60.80;;;39.43;;
22955;SDS011;40888;48.148;11.526;2023-03-03T09:52:21;61.00;;;41.37;;
22955;SDS011;40888;48.148;11.526;2023-03-03T10:15:02;54.37;;;40.97;;
22955;SDS011;40888;48.148;11.526;2023-03-03T10:22:53;53.33;;;40.07;;
22955;SDS011;40888;48.148;11.526;2023-03-03T10:33:25;57.67;;;39.87;;
22955;SDS011;40888;48.148;11.526;2023-03-03T10:38:31;57.17;;;40.70;;
22955;SDS011;40888;48.148;11.526;2023-03-03T10:41:07;59.80;;;40.73;;
22955;SDS011;40888;48.148;11.526;2023-03-03T10:43:40;56.67;;;39.03;;
22955;SDS011;40888;48.148;11.526;2023-03-03T10:56:49;53.80;;;38.10;;
22955;SDS011;40888;48.148;11.526;2023-03-03T11:01:56;54.53;;;35.20;;
22955;SDS011;40888;48.148;11.526;2023-03-03T11:04:37;49.73;;;29.43;;
22955;SDS011;40888;48.148;11.526;2023-03-03T11:07:23;54.03;;;38.60;;
22955;SDS011;40888;48.148;11.526;2023-03-03T11:12:36;53.40;;;35.13;;
22955;SDS011;40888;48.148;11.526;2023-03-03T11:15:28;54.47;;;32.43;;
22955;SDS011;40888;48.148;11.526;2023-03-03T11:23:23;50.30;;;35.37;;
22955;SDS011;40888;48.148;11.526;2023-03-03T11:28:41;57.90;;;35.33;;
22955;SDS011;40888;48.148;11.526;2023-03-03T11:33:41;53.07;;;36.27;;
22955;SDS011;40888;48.148;11.526;2023-03-03T11:36:11;53.13;;;33.97;;
22955;SDS011;40888;48.148;11.526;2023-03-03T11:41:14;48.87;;;32.70;;
22955;SDS011;40888;48.148;11.526;2023-03-03T11:43:42;58.07;;;38.10;;
22955;SDS011;40888;48.148;11.526;2023-03-03T11:46:11;50.73;;;34.57;;
22955;SDS011;40888;48.148;11.526;2023-03-03T11:49:02;53.23;;;38.33;;
22955;SDS011;40888;48.148;11.526;2023-03-03T11:53:58;52.67;;;33.43;;
22955;SDS011;40888;48.148;11.526;2023-03-03T11:56:33;54.63;;;38.77;;
22955;SDS011;40888;48.148;11.526;2023-03-03T12:01:40;49.73;;;35.17;;
22955;SDS011;40888;48.148;11.526;2023-03-03T12:04:26;53.47;;;36.67;;
22955;SDS011;40888;48.148;11.526;2023-03-03T12:12:30;52.63;;;35.90;;
22955;SDS011;40888;48.148;11.526;2023-03-03T12:15:03;51.67;;;39.17;;
22955;SDS011;40888;48.148;11.526;2023-03-03T12:17:46;50.13;;;36.87;;
22955;SDS011;40888;48.148;11.526;2023-03-03T12:35:10;47.73;;;27.07;;
22955;SDS011;40888;48.148;11.526;2023-03-03T12:37:45;50.83;;;28.83;;
22955;SDS011;40888;48.148;11.526;2023-03-03T12:40:15;51.80;;;28.23;;
22955;SDS011;40888;48.148;11.526;2023-03-03T12:42:46;50.53;;;28.93;;
22955;SDS011;40888;48.148;11.526;2023-03-03T12:45:27;48.97;;;29.53;;
22955;SDS011;40888;48.148;11.526;2023-03-03T12:47:59;52.57;;;28.70;;
22955;SDS011;40888;48.148;11.526;2023-03-03T12:50:32;54.73;;;30.57;;
22955;SDS011;40888;48.148;11.526;2023-03-03T13:01:00;51.07;;;29.23;;
22955;SDS011;40888;48.148;11.526;2023-03-03T13:09:30;49.50;;;27.00;;
22955;SDS011;40888;48.148;11.526;2023-03-03T13:14:15;46.97;;;27.00;;
22955;SDS011;40888;48.148;11.526;2023-03-03T13:16:44;48.53;;;27.27;;
22955;SDS011;40888;48.148;11.526;2023-03-03T13:19:19;52.03;;;27.73;;
22955;SDS011;40888;48.148;11.526;2023-03-03T13:21:51;47.77;;;27.27;;
22955;SDS011;40888;48.148;11.526;2023-03-03T13:24:26;48.40;;;26.20;;
22955;SDS011;40888;48.148;11.526;2023-03-03T13:27:00;49.60;;;28.03;;
22955;SDS011;40888;48.148;11.526;2023-03-03T13:29:31;45.50;;;27.60;;
22955;SDS011;40888;48.148;11.526;2023-03-03T13:32:03;50.97;;;30.10;;
22955;SDS011;40888;48.148;11.526;2023-03-03T13:37:14;45.90;;;27.47;;
22955;SDS011;40888;48.148;11.526;2023-03-03T13:39:52;44.47;;;26.97;;
22955;SDS011;40888;48.148;11.526;2023-03-03T13:42:28;42.47;;;26.77;;
22955;SDS011;40888;48.148;11.526;2023-03-03T13:44:56;46.70;;;27.13;;
22955;SDS011;40888;48.148;11.526;2023-03-03T13:52:26;48.10;;;29.33;;
22955;SDS011;40888;48.148;11.526;2023-03-03T14:05:12;44.77;;;26.70;;
22955;SDS011;40888;48.148;11.526;2023-03-03T14:07:51;47.40;;;28.67;;
22955;SDS011;40888;48.148;11.526;2023-03-03T14:10:23;48.97;;;28.40;;
22955;SDS011;40888;48.148;11.526;2023-03-03T14:15:25;46.37;;;25.90;;
22955;SDS011;40888;48.148;11.526;2023-03-03T14:17:55;46.03;;;26.23;;
22955;SDS011;40888;48.148;11.526;2023-03-03T14:20:28;41.23;;;26.03;;
22955;SDS011;40888;48.148;11.526;2023-03-03T14:23:02;46.83;;;28.53;;
22955;SDS011;40888;48.148;11.526;2023-03-03T14:28:14;40.60;;;25.90;;
22955;SDS011;40888;48.148;11.526;2023-03-03T14:30:42;46.27;;;26.17;;
22955;SDS011;40888;48.148;11.526;2023-03-03T14:35:35;45.87;;;28.20;;
22955;SDS011;40888;48.148;11.526;2023-03-03T14:38:04;42.83;;;27.07;;
22955;SDS011;40888;48.148;11.526;2023-03-03T14:40:35;48.20;;;28.00;;
22955;SDS011;40888;48.148;11.526;2023-03-03T14:43:21;44.00;;;27.30;;
22955;SDS011;40888;48.148;11.526;2023-03-03T14:45:48;38.10;;;26.13;;
22955;SDS011;40888;48.148;11.526;2023-03-03T14:48:18;41.73;;;27.30;;
22955;SDS011;40888;48.148;11.526;2023-03-03T14:53:37;38.47;;;26.23;;
22955;SDS011;40888;48.148;11.526;2023-03-03T14:56:14;40.43;;;26.30;;
22955;SDS011;40888;48.148;11.526;2023-03-03T14:58:40;41.67;;;26.23;;
22955;SDS011;40888;48.148;11.526;2023-03-03T15:01:20;41.17;;;26.83;;
22955;SDS011;40888;48.148;11.526;2023-03-03T15:03:48;38.47;;;26.63;;
22955;SDS011;40888;48.148;11.526;2023-03-03T15:06:33;37.80;;;24.63;;
22955;SDS011;40888;48.148;11.526;2023-03-03T15:09:19;37.57;;;25.40;;
22955;SDS011;40888;48.148;11.526;2023-03-03T15:11:45;43.83;;;25.20;;
22955;SDS011;40888;48.148;11.526;2023-03-03T15:14:14;44.47;;;25.37;;
22955;SDS011;40888;48.148;11.526;2023-03-03T15:16:41;42.40;;;25.47;;
22955;SDS011;40888;48.148;11.526;2023-03-03T15:21:59;40.07;;;25.03;;
22955;SDS011;40888;48.148;11.526;2023-03-03T15:24:43;37.80;;;25.13;;
22955;SDS011;40888;48.148;11.526;2023-03-03T15:29:46;40.43;;;24.70;;
22955;SDS011;40888;48.148;11.526;2023-03-03T15:53:04;43.17;;;25.03;;
22955;SDS011;40888;48.148;11.526;2023-03-03T15:58:32;38.17;;;24.93;;
22955;SDS011;40888;48.148;11.526;2023-03-03T16:03:30;40.57;;;26.03;;
22955;SDS011;40888;48.148;11.526;2023-03-03T16:06:00;36.87;;;25.30;;
22955;SDS011;40888;48.148;11.526;2023-03-03T16:08:41;37.97;;;24.33;;
22955;SDS011;40888;48.148;11.526;2023-03-03T16:11:20;44.83;;;25.73;;
22955;SDS011;40888;48.148;11.526;2023-03-03T16:13:53;42.77;;;25.33;;
22955;SDS011;40888;48.148;11.526;2023-03-03T16:16:38;42.57;;;25.67;;
22955;SDS011;40888;48.148;11.526;2023-03-03T16:21:59;37.63;;;23.97;;
22955;SDS011;40888;48.148;11.526;2023-03-03T16:24:31;40.37;;;25.37;;
22955;SDS011;40888;48.148;11.526;2023-03-03T16:32:05;46.60;;;25.60;;
22955;SDS011;40888;48.148;11.526;2023-03-03T16:37:33;41.87;;;25.73;;
22955;SDS011;40888;48.148;11.526;2023-03-03T16:40:02;52.20;;;26.03;;
22955;SDS011;40888;48.148;11.526;2023-03-03T16:42:33;41.80;;;25.30;;
22955;SDS011;40888;48.148;11.526;2023-03-03T16:50:47;49.43;;;26.13;;
22955;SDS011;40888;48.148;11.526;2023-03-03T16:53:17;44.63;;;27.53;;
22955;SDS011;40888;48.148;11.526;2023-03-03T17:00:56;47.23;;;27.33;;
22955;SDS011;40888;48.148;11.526;2023-03-03T17:03:46;45.40;;;30.60;;
22955;SDS011;40888;48.148;11.526;2023-03-03T17:08:53;48.00;;;32.47;;
22955;SDS011;40888;48.148;11.526;2023-03-03T17:11:27;45.23;;;32.57;;
22955;SDS011;40888;48.148;11.526;2023-03-03T17:16:43;50.70;;;33.40;;
22955;SDS011;40888;48.148;11.526;2023-03-03T17:19:20;49.47;;;33.17;;
22955;SDS011;40888;48.148;11.526;2023-03-03T17:24:24;45.17;;;34.30;;
22955;SDS011;40888;48.148;11.526;2023-03-03T17:29:42;52.63;;;35.23;;
22955;SDS011;40888;48.148;11.526;2023-03-03T17:45:19;51.83;;;36.23;;
22955;SDS011;40888;48.148;11.526;2023-03-03T17:50:31;43.43;;;34.97;;
22955;SDS011;40888;48.148;11.526;2023-03-03T18:19:44;56.43;;;41.37;;
22955;SDS011;40888;48.148;11.526;2023-03-03T18:22:33;56.17;;;41.17;;
22955;SDS011;40888;48.148;11.526;2023-03-03T18:27:36;56.13;;;41.50;;
22955;SDS011;40888;48.148;11.526;2023-03-03T18:33:06;54.30;;;38.97;;
22955;SDS011;40888;48.148;11.526;2023-03-03T18:38:17;54.53;;;40.37;;
22955;SDS011;40888;48.148;11.526;2023-03-03T18:45:58;56.13;;;41.73;;
22955;SDS011;40888;48.148;11.526;2023-03-03T18:51:09;59.33;;;42.87;;
22955;SDS011;40888;48.148;11.526;2023-03-03T18:53:35;56.90;;;40.53;;
22955;SDS011;40888;48.148;11.526;2023-03-03T18:56:02;61.00;;;42.40;;
22955;SDS011;40888;48.148;11.526;2023-03-03T18:58:32;56.37;;;41.80;;
22955;SDS011;40888;48.148;11.526;2023-03-03T19:01:13;59.53;;;44.07;;
22955;SDS011;40888;48.148;11.526;2023-03-03T19:09:05;58.77;;;41.73;;
22955;SDS011;40888;48.148;11.526;2023-03-03T19:14:12;54.20;;;40.77;;
22955;SDS011;40888;48.148;11.526;2023-03-03T19:16:39;55.53;;;41.17;;
22955;SDS011;40888;48.148;11.526;2023-03-03T19:19:09;53.30;;;40.07;;
22955;SDS011;40888;48.148;11.526;2023-03-03T19:21:36;50.93;;;39.67;;
22955;SDS011;40888;48.148;11.526;2023-03-03T19:34:49;54.17;;;39.37;;
22955;SDS011;40888;48.148;11.526;2023-03-03T19:40:18;59.33;;;41.33;;